Time;durP1;ratioP1;P1;durP2;ratioP2;P2;SDS_P1;SDS_P2;PMS_P1;PMS_P2;Temp;Humidity;BMP_temperature;BMP_pressure;BME280_temperature;BME280_humidity;BME280_pressure;Samples;Min_cycle;Max_cycle;Signal;HPM_P1;HPM_P2
2023/10/16 00:01:26;;;;;;;9.33;3.13;;;;;;;;;;5045352;28;20623;-69
2023/10/16 00:03:52;;;;;;;7.80;3.33;;;;;;;;;;5054035;28;20586;-70
2023/10/16 00:06:18;;;;;;;8.97;3.07;;;;;;;;;;5045131;28;20205;-70
2023/10/16 00:08:47;;;;;;;7.27;3.30;;;;;;;;;;5048309;28;20687;-69
2023/10/16 00:11:16;;;;;;;8.53;3.20;;;;;;;;;;5049709;28;20310;-69
2023/10/16 00:13:43;;;;;;;12.83;3.53;;;;;;;;;;5057458;28;20196;-70
2023/10/16 00:16:15;;;;;;;10.50;3.20;;;;;;;;;;5055257;28;20559;-70
2023/10/16 00:18:40;;;;;;;7.23;2.93;;;;;;;;;;5050484;28;20212;-70
2023/10/16 00:21:06;;;;;;;8.27;3.33;;;;;;;;;;5062403;28;20189;-69
2023/10/16 00:23:37;;;;;;;12.50;3.17;;;;;;;;;;5055529;28;20322;-70
2023/10/16 00:26:05;;;;;;;6.97;2.90;;;;;;;;;;5056407;28;20215;-70
2023/10/16 00:28:32;;;;;;;7.70;3.00;;;;;;;;;;5039065;28;20205;-70
2023/10/16 00:30:57;;;;;;;6.70;3.00;;;;;;;;;;5056150;28;20633;-70
2023/10/16 00:33:23;;;;;;;5.07;2.80;;;;;;;;;;5051457;28;20303;-70
2023/10/16 00:35:48;;;;;;;7.43;3.63;;;;;;;;;;5047521;28;20224;-69
2023/10/16 00:38:14;;;;;;;9.93;2.90;;;;;;;;;;5048191;28;20271;-70
2023/10/16 00:41:10;;;;;;;9.50;2.77;;;;;;;;;;5052407;28;20636;-71
2023/10/16 00:43:35;;;;;;;6.80;2.83;;;;;;;;;;5049523;28;20185;-70
2023/10/16 00:46:06;;;;;;;6.20;3.03;;;;;;;;;;5055402;28;20760;-70
2023/10/16 00:48:33;;;;;;;5.67;3.20;;;;;;;;;;5056439;28;20196;-70
2023/10/16 00:51:06;;;;;;;11.50;3.20;;;;;;;;;;5050885;28;20246;-70
2023/10/16 00:53:31;;;;;;;9.83;3.57;;;;;;;;;;5049470;28;20225;-70
2023/10/16 00:55:58;;;;;;;9.10;2.97;;;;;;;;;;5039246;28;20225;-70
2023/10/16 00:58:23;;;;;;;6.70;2.70;;;;;;;;;;5061836;28;20192;-69
2023/10/16 01:00:49;;;;;;;9.73;3.63;;;;;;;;;;5067414;28;20497;-70
2023/10/16 01:03:16;;;;;;;8.00;3.10;;;;;;;;;;5055591;28;20679;-70
2023/10/16 01:05:42;;;;;;;7.73;2.90;;;;;;;;;;5045231;28;20194;-70
2023/10/16 01:08:09;;;;;;;6.80;3.40;;;;;;;;;;5049982;28;20268;-70
2023/10/16 01:10:37;;;;;;;6.10;3.40;;;;;;;;;;5050563;28;20204;-70
2023/10/16 01:13:08;;;;;;;8.93;3.10;;;;;;;;;;5051140;28;20201;-72
2023/10/16 01:15:34;;;;;;;8.37;2.80;;;;;;;;;;5040724;28;20626;-70
2023/10/16 01:17:59;;;;;;;7.17;3.23;;;;;;;;;;5040134;28;20185;-70
2023/10/16 01:20:25;;;;;;;11.87;3.07;;;;;;;;;;5046098;28;20201;-70
2023/10/16 01:22:52;;;;;;;10.33;3.00;;;;;;;;;;5047947;28;20227;-70
2023/10/16 01:25:18;;;;;;;10.93;2.67;;;;;;;;;;5043191;28;20532;-71
2023/10/16 01:27:43;;;;;;;10.47;2.73;;;;;;;;;;5037847;28;20552;-70
2023/10/16 01:30:09;;;;;;;10.90;2.97;;;;;;;;;;5063185;28;20535;-70
2023/10/16 01:32:36;;;;;;;9.55;3.03;;;;;;;;;;5063994;28;20297;-70
2023/10/16 01:35:08;;;;;;;7.07;3.00;;;;;;;;;;5058702;28;20189;-70
2023/10/16 01:37:33;;;;;;;6.60;2.80;;;;;;;;;;5048439;28;20288;-70
2023/10/16 01:40:21;;;;;;;11.60;3.00;;;;;;;;;;5055457;28;20264;-70
2023/10/16 01:42:47;;;;;;;8.27;2.70;;;;;;;;;;5038956;28;20232;-71
2023/10/16 01:45:14;;;;;;;6.78;2.63;;;;;;;;;;5048666;28;20698;-70
2023/10/16 01:47:39;;;;;;;10.47;2.90;;;;;;;;;;5047990;28;20277;-71
2023/10/16 01:50:05;;;;;;;9.90;2.60;;;;;;;;;;5052806;28;20264;-71
2023/10/16 01:52:33;;;;;;;11.02;3.08;;;;;;;;;;5048919;28;20247;-71
2023/10/16 01:54:59;;;;;;;7.68;2.70;;;;;;;;;;5051165;28;20177;-71
2023/10/16 01:57:25;;;;;;;7.10;2.73;;;;;;;;;;5062704;28;20578;-70
2023/10/16 01:59:51;;;;;;;13.50;2.80;;;;;;;;;;5047034;28;20700;-71
2023/10/16 02:02:17;;;;;;;7.00;2.40;;;;;;;;;;5061532;28;20235;-71
2023/10/16 02:04:43;;;;;;;8.93;2.90;;;;;;;;;;5064511;28;20242;-71
2023/10/16 02:07:09;;;;;;;8.07;2.63;;;;;;;;;;5058553;28;20200;-70
2023/10/16 02:09:36;;;;;;;9.40;2.78;;;;;;;;;;5045775;28;20215;-70
2023/10/16 02:12:10;;;;;;;8.38;2.90;;;;;;;;;;5044663;28;20209;-70
2023/10/16 02:14:39;;;;;;;6.57;2.40;;;;;;;;;;5051295;28;20193;-70
2023/10/16 02:17:05;;;;;;;7.03;2.67;;;;;;;;;;5045327;28;20200;-70
2023/10/16 02:19:30;;;;;;;7.55;2.70;;;;;;;;;;5045264;28;20659;-70
2023/10/16 02:21:55;;;;;;;7.27;2.50;;;;;;;;;;5046605;28;20204;-70
2023/10/16 02:24:21;;;;;;;4.77;2.33;;;;;;;;;;5046640;28;20197;-70
2023/10/16 02:26:56;;;;;;;8.43;2.70;;;;;;;;;;5048216;28;20192;-70
2023/10/16 02:29:24;;;;;;;6.30;2.30;;;;;;;;;;5038240;28;20196;-70
2023/10/16 02:31:53;;;;;;;6.23;2.53;;;;;;;;;;5045315;28;20229;-70
2023/10/16 02:34:22;;;;;;;5.40;2.30;;;;;;;;;;5048606;28;20205;-71
2023/10/16 02:36:51;;;;;;;6.77;2.60;;;;;;;;;;5047142;28;20506;-71
2023/10/16 02:39:35;;;;;;;5.40;2.50;;;;;;;;;;5048827;28;20216;-71
2023/10/16 02:42:01;;;;;;;9.07;2.47;;;;;;;;;;5046168;28;20185;-70
2023/10/16 02:44:26;;;;;;;8.27;3.13;;;;;;;;;;5050506;28;20644;-73
2023/10/16 02:46:51;;;;;;;3.83;2.13;;;;;;;;;;5046505;28;20240;-71
2023/10/16 02:49:17;;;;;;;7.90;2.50;;;;;;;;;;5046574;28;20403;-71
2023/10/16 02:51:42;;;;;;;6.67;2.63;;;;;;;;;;5045135;28;20225;-72
2023/10/16 02:54:08;;;;;;;8.60;2.30;;;;;;;;;;5028447;28;20651;-71
2023/10/16 02:56:33;;;;;;;6.80;2.10;;;;;;;;;;5037752;28;20185;-71
2023/10/16 02:59:07;;;;;;;7.50;2.40;;;;;;;;;;5030341;28;20579;-71
2023/10/16 03:01:33;;;;;;;6.53;2.13;;;;;;;;;;5043749;28;20173;-72
2023/10/16 03:03:58;;;;;;;9.47;3.77;;;;;;;;;;5046261;28;20203;-71
2023/10/16 03:06:27;;;;;;;7.03;2.20;;;;;;;;;;5038708;28;20189;-71
2023/10/16 03:08:54;;;;;;;8.50;2.33;;;;;;;;;;5043691;28;20189;-71
2023/10/16 03:11:20;;;;;;;8.00;2.33;;;;;;;;;;5048344;28;20656;-71
2023/10/16 03:13:56;;;;;;;8.00;2.20;;;;;;;;;;5045778;28;20197;-71
2023/10/16 03:16:26;;;;;;;5.67;2.27;;;;;;;;;;5048381;28;20523;-71
2023/10/16 03:19:02;;;;;;;11.03;2.40;;;;;;;;;;5043940;28;20188;-70
2023/10/16 03:21:28;;;;;;;8.07;2.67;;;;;;;;;;5047880;28;20260;-71
2023/10/16 03:23:53;;;;;;;9.33;2.83;;;;;;;;;;5033123;28;20599;-70
2023/10/16 03:28:46;;;;;;;9.82;2.75;;;;;;;;;;5044210;28;20205;-71
2023/10/16 03:31:12;;;;;;;6.55;2.88;;;;;;;;;;5040635;28;20230;-70
2023/10/16 03:33:38;;;;;;;8.52;3.00;;;;;;;;;;5053584;28;20187;-70
2023/10/16 03:36:04;;;;;;;5.25;2.40;;;;;;;;;;5037092;28;20184;-70
2023/10/16 03:38:36;;;;;;;6.47;2.40;;;;;;;;;;5048614;28;20186;-71
2023/10/16 03:41:11;;;;;;;10.73;2.47;;;;;;;;;;5052224;28;20178;-70
2023/10/16 03:43:37;;;;;;;4.63;2.40;;;;;;;;;;5046894;28;20196;-71
2023/10/16 03:46:03;;;;;;;6.68;2.80;;;;;;;;;;5051438;28;20186;-71
2023/10/16 03:48:28;;;;;;;4.68;2.20;;;;;;;;;;5046771;28;20215;-70
2023/10/16 03:50:56;;;;;;;8.15;2.67;;;;;;;;;;5036664;28;20206;-70
2023/10/16 03:53:21;;;;;;;9.30;2.67;;;;;;;;;;5045276;28;20200;-71
2023/10/16 03:55:48;;;;;;;16.63;3.20;;;;;;;;;;5048407;28;20555;-70
2023/10/16 03:58:14;;;;;;;4.30;2.07;;;;;;;;;;5064175;28;20181;-70
2023/10/16 04:00:58;;;;;;;8.40;2.63;;;;;;;;;;5069941;28;20208;-71
2023/10/16 04:03:26;;;;;;;4.73;2.10;;;;;;;;;;5070410;28;20254;-70
2023/10/16 04:05:53;;;;;;;6.90;2.40;;;;;;;;;;5055587;28;20637;-71
2023/10/16 04:08:21;;;;;;;7.85;2.90;;;;;;;;;;5051537;28;20216;-70
2023/10/16 04:10:48;;;;;;;8.70;2.43;;;;;;;;;;5040479;28;20258;-71
2023/10/16 04:13:25;;;;;;;8.13;2.43;;;;;;;;;;5061041;28;20189;-70
2023/10/16 04:15:59;;;;;;;9.50;2.13;;;;;;;;;;5051497;28;20188;-70
2023/10/16 04:21:09;;;;;;;5.07;2.07;;;;;;;;;;5047766;28;20193;-70
2023/10/16 04:23:52;;;;;;;8.97;2.50;;;;;;;;;;5039676;28;20248;-70
2023/10/16 04:26:47;;;;;;;8.00;2.30;;;;;;;;;;5037124;28;20198;-70
2023/10/16 04:31:54;;;;;;;7.87;2.50;;;;;;;;;;5041457;28;20228;-71
2023/10/16 04:36:53;;;;;;;3.90;2.03;;;;;;;;;;5048687;28;20181;-71
2023/10/16 05:01:17;;;;;;;6.07;2.45;;;;;;;;;;5049588;28;20181;-71
2023/10/16 05:06:15;;;;;;;8.43;2.15;;;;;;;;;;5042205;28;20190;-71
2023/10/16 05:08:59;;;;;;;8.05;2.60;;;;;;;;;;5049714;28;20192;-71
2023/10/16 05:11:33;;;;;;;5.50;2.13;;;;;;;;;;5040384;28;20217;-71
2023/10/16 06:14:11;;;;;;;4.53;2.17;;;;;;;;;;5043242;28;20599;-71
2023/10/16 06:16:40;;;;;;;10.50;3.55;;;;;;;;;;5047246;28;20216;-71
2023/10/16 06:19:10;;;;;;;9.25;2.70;;;;;;;;;;5063705;28;20192;-71
2023/10/16 06:21:37;;;;;;;8.45;1.92;;;;;;;;;;5047764;28;20361;-71
2023/10/16 06:24:17;;;;;;;4.65;2.03;;;;;;;;;;5056297;28;20193;-71
2023/10/16 06:26:46;;;;;;;5.53;2.28;;;;;;;;;;5039108;28;20186;-71
2023/10/16 06:29:12;;;;;;;8.07;3.22;;;;;;;;;;5040719;28;20717;-71
2023/10/16 06:31:49;;;;;;;9.68;2.72;;;;;;;;;;5049343;28;20221;-71
2023/10/16 06:34:15;;;;;;;6.88;2.13;;;;;;;;;;5045266;28;20280;-71
2023/10/16 06:36:41;;;;;;;5.68;2.17;;;;;;;;;;5044004;28;20780;-72
2023/10/16 06:39:22;;;;;;;7.60;2.38;;;;;;;;;;5046462;28;20233;-72
2023/10/16 06:41:54;;;;;;;6.55;2.10;;;;;;;;;;5047682;28;20184;-71
2023/10/16 06:44:28;;;;;;;8.85;2.40;;;;;;;;;;5048441;28;20524;-71
2023/10/16 06:46:58;;;;;;;9.07;2.38;;;;;;;;;;5039970;28;20264;-71
2023/10/16 06:49:26;;;;;;;6.93;1.70;;;;;;;;;;5046406;28;20196;-71
2023/10/16 06:51:52;;;;;;;5.00;1.88;;;;;;;;;;5055913;28;20742;-72
2023/10/16 06:54:18;;;;;;;7.60;1.70;;;;;;;;;;5045109;28;20237;-72
2023/10/16 06:56:44;;;;;;;9.68;2.22;;;;;;;;;;5050041;28;20335;-72
2023/10/16 06:59:16;;;;;;;8.25;1.98;;;;;;;;;;5046771;28;20268;-71
2023/10/16 07:01:42;;;;;;;5.50;1.98;;;;;;;;;;5037294;28;20238;-71
2023/10/16 07:04:07;;;;;;;8.23;2.40;;;;;;;;;;5049593;28;20193;-71
2023/10/16 07:06:33;;;;;;;8.18;2.40;;;;;;;;;;5043846;28;20206;-72
2023/10/16 07:09:03;;;;;;;10.60;2.00;;;;;;;;;;5045912;28;20704;-71
2023/10/16 07:11:29;;;;;;;8.30;2.30;;;;;;;;;;5046168;28;20243;-71
2023/10/16 07:13:55;;;;;;;5.75;2.10;;;;;;;;;;5036684;28;20177;-71
2023/10/16 07:16:20;;;;;;;9.73;2.20;;;;;;;;;;5054037;28;20247;-71
2023/10/16 07:18:46;;;;;;;8.25;2.30;;;;;;;;;;5047121;28;20196;-72
2023/10/16 07:21:17;;;;;;;7.40;2.40;;;;;;;;;;5055270;28;20299;-72
2023/10/16 07:23:43;;;;;;;8.43;2.70;;;;;;;;;;5026185;28;20273;-72
2023/10/16 07:26:09;;;;;;;8.88;2.13;;;;;;;;;;5049296;28;20284;-72
2023/10/16 07:28:36;;;;;;;11.45;2.80;;;;;;;;;;5040649;28;20251;-72
2023/10/16 07:31:05;;;;;;;3.92;1.90;;;;;;;;;;5049185;28;20233;-71
2023/10/16 07:33:32;;;;;;;8.75;2.15;;;;;;;;;;5045438;28;20202;-72
2023/10/16 07:36:01;;;;;;;7.03;2.20;;;;;;;;;;5049496;28;20189;-71
2023/10/16 07:38:28;;;;;;;6.10;2.05;;;;;;;;;;5048127;28;20220;-72
2023/10/16 07:40:59;;;;;;;7.28;1.63;;;;;;;;;;5055328;28;20185;-72
2023/10/16 07:43:27;;;;;;;3.90;1.88;;;;;;;;;;5038905;28;20228;-72
2023/10/16 07:48:52;;;;;;;5.53;2.03;;;;;;;;;;5046445;28;20248;-71
2023/10/16 07:51:25;;;;;;;4.78;2.15;;;;;;;;;;5051586;28;20197;-72
2023/10/16 07:53:51;;;;;;;3.60;1.98;;;;;;;;;;5064191;28;20197;-72
2023/10/16 07:59:06;;;;;;;4.75;1.70;;;;;;;;;;5058130;28;20253;-72
2023/10/16 08:01:42;;;;;;;4.88;1.50;;;;;;;;;;5053254;28;20189;-72
2023/10/16 08:04:19;;;;;;;4.70;1.65;;;;;;;;;;5050706;28;20199;-71
2023/10/16 08:06:45;;;;;;;4.70;1.63;;;;;;;;;;5043155;28;20652;-72
2023/10/16 08:12:00;;;;;;;4.47;1.70;;;;;;;;;;5050590;28;20717;-71
2023/10/16 08:14:26;;;;;;;4.97;1.63;;;;;;;;;;5044677;28;20345;-72
2023/10/16 08:16:58;;;;;;;2.80;1.58;;;;;;;;;;5051769;28;20256;-72
2023/10/16 08:19:31;;;;;;;3.28;1.65;;;;;;;;;;5052802;28;20308;-71
2023/10/16 08:21:57;;;;;;;7.93;1.90;;;;;;;;;;5053351;28;20664;-72
2023/10/16 08:24:24;;;;;;;2.03;1.30;;;;;;;;;;5048414;28;20185;-71
2023/10/16 08:26:53;;;;;;;8.50;1.45;;;;;;;;;;5061500;28;20578;-72
2023/10/16 08:29:20;;;;;;;2.80;1.30;;;;;;;;;;5041833;28;20194;-72
2023/10/16 08:31:52;;;;;;;4.13;1.60;;;;;;;;;;5037709;28;20614;-71
2023/10/16 08:34:20;;;;;;;9.55;1.60;;;;;;;;;;5046963;28;20186;-71
2023/10/16 08:36:53;;;;;;;7.25;1.95;;;;;;;;;;5056296;28;20189;-72
2023/10/16 08:39:21;;;;;;;6.47;2.00;;;;;;;;;;5057071;28;20224;-71
2023/10/16 08:41:53;;;;;;;3.40;1.60;;;;;;;;;;5051284;28;20659;-72
2023/10/16 08:44:21;;;;;;;4.90;1.85;;;;;;;;;;5050587;28;20185;-71
2023/10/16 08:49:22;;;;;;;8.00;1.80;;;;;;;;;;5046582;28;20628;-72
2023/10/16 08:51:49;;;;;;;4.85;1.67;;;;;;;;;;5045181;28;20267;-71
2023/10/16 08:57:00;;;;;;;5.05;1.40;;;;;;;;;;5060707;28;20177;-71
2023/10/16 08:59:26;;;;;;;4.63;1.55;;;;;;;;;;5045658;28;20721;-71
2023/10/16 09:01:54;;;;;;;6.50;1.67;;;;;;;;;;5049968;28;20680;-71
2023/10/16 09:04:23;;;;;;;4.63;1.45;;;;;;;;;;5038494;28;20194;-71
2023/10/16 09:06:50;;;;;;;7.82;1.80;;;;;;;;;;5049769;28;20597;-72
2023/10/16 09:09:16;;;;;;;2.95;1.20;;;;;;;;;;5063351;28;20176;-71
2023/10/16 09:11:49;;;;;;;4.43;1.40;;;;;;;;;;5051830;28;20275;-71
2023/10/16 09:14:20;;;;;;;6.45;1.83;;;;;;;;;;5061100;28;20312;-71
2023/10/16 09:16:51;;;;;;;3.38;1.50;;;;;;;;;;5050010;28;20557;-71
2023/10/16 09:19:18;;;;;;;5.78;1.77;;;;;;;;;;5046889;28;20528;-71
2023/10/16 09:21:44;;;;;;;3.22;1.58;;;;;;;;;;5048510;28;20230;-71
2023/10/16 09:24:13;;;;;;;3.25;1.33;;;;;;;;;;5052762;28;20644;-71
2023/10/16 09:26:44;;;;;;;4.55;1.77;;;;;;;;;;5031868;28;20237;-71
2023/10/16 09:29:19;;;;;;;4.70;1.40;;;;;;;;;;5055616;28;20208;-71
2023/10/16 09:31:46;;;;;;;5.38;1.60;;;;;;;;;;5044133;28;20233;-71
2023/10/16 09:34:25;;;;;;;3.92;1.25;;;;;;;;;;5049086;28;20201;-71
2023/10/16 09:39:52;;;;;;;6.13;1.88;;;;;;;;;;5025489;28;20216;-71
2023/10/16 09:42:24;;;;;;;5.63;1.95;;;;;;;;;;5049221;28;20193;-71
2023/10/16 09:44:59;;;;;;;5.88;2.05;;;;;;;;;;5043217;28;20244;-71
2023/10/16 09:47:26;;;;;;;3.42;1.63;;;;;;;;;;5046341;28;20189;-71
2023/10/16 09:49:58;;;;;;;7.75;1.75;;;;;;;;;;5049834;28;20185;-71
2023/10/16 09:52:25;;;;;;;8.38;1.55;;;;;;;;;;5045803;28;20205;-70
2023/10/16 09:54:51;;;;;;;7.90;1.58;;;;;;;;;;5048262;28;20224;-71
2023/10/16 09:57:27;;;;;;;3.38;1.23;;;;;;;;;;5054105;28;20268;-71
2023/10/16 09:59:54;;;;;;;5.00;1.55;;;;;;;;;;5041561;28;20339;-71
2023/10/16 10:02:21;;;;;;;2.22;1.10;;;;;;;;;;5050736;28;20181;-71
2023/10/16 10:04:59;;;;;;;3.83;1.10;;;;;;;;;;5051191;28;20192;-71
2023/10/16 10:07:37;;;;;;;4.15;1.10;;;;;;;;;;5046886;28;20189;-71
2023/10/16 10:12:56;;;;;;;4.07;1.10;;;;;;;;;;5042550;28;20212;-71
2023/10/16 10:15:30;;;;;;;3.92;1.40;;;;;;;;;;5035161;28;20193;-72
2023/10/16 10:18:01;;;;;;;3.50;1.38;;;;;;;;;;5042085;28;20213;-71
2023/10/16 10:20:31;;;;;;;4.95;1.05;;;;;;;;;;5045743;28;20789;-71
2023/10/16 10:23:08;;;;;;;3.92;0.80;;;;;;;;;;5044590;28;20226;-72
2023/10/16 10:25:36;;;;;;;3.10;0.98;;;;;;;;;;5043587;28;20212;-71
2023/10/16 10:28:09;;;;;;;2.75;0.95;;;;;;;;;;5054578;28;20223;-71
2023/10/16 10:30:40;;;;;;;6.57;1.50;;;;;;;;;;5048037;28;20717;-73
2023/10/16 10:33:06;;;;;;;5.90;1.25;;;;;;;;;;5049379;28;20210;-71
2023/10/16 10:35:38;;;;;;;6.68;1.15;;;;;;;;;;5044038;28;20193;-71
2023/10/16 10:38:17;;;;;;;5.63;1.20;;;;;;;;;;5047888;28;20197;-71
2023/10/16 10:41:12;;;;;;;5.57;1.30;;;;;;;;;;5041382;28;20538;-71
2023/10/16 10:43:48;;;;;;;6.15;1.30;;;;;;;;;;5046585;28;20189;-71
2023/10/16 10:46:25;;;;;;;4.70;1.17;;;;;;;;;;5043567;28;20284;-71
2023/10/16 10:48:54;;;;;;;4.47;1.33;;;;;;;;;;5048462;28;20564;-71
2023/10/16 10:51:20;;;;;;;7.82;1.50;;;;;;;;;;5045590;28;20715;-71
2023/10/16 10:53:56;;;;;;;2.05;0.93;;;;;;;;;;5045500;28;20200;-71
2023/10/16 10:56:22;;;;;;;3.85;1.30;;;;;;;;;;5056714;28;20205;-71
2023/10/16 10:58:48;;;;;;;2.90;1.00;;;;;;;;;;5054158;28;20185;-71
2023/10/16 11:01:26;;;;;;;2.90;0.88;;;;;;;;;;5051992;28;20617;-71
2023/10/16 11:03:53;;;;;;;3.63;1.20;;;;;;;;;;5054768;28;20253;-71
2023/10/16 11:06:20;;;;;;;3.03;1.10;;;;;;;;;;5050459;28;20191;-71
2023/10/16 11:08:50;;;;;;;4.93;1.30;;;;;;;;;;5051066;28;20196;-71
2023/10/16 11:11:16;;;;;;;6.22;1.45;;;;;;;;;;5047305;28;20263;-72
2023/10/16 11:13:48;;;;;;;3.90;1.27;;;;;;;;;;5053715;28;20204;-71
2023/10/16 11:16:18;;;;;;;6.28;1.48;;;;;;;;;;5057129;28;20228;-71
2023/10/16 11:19:00;;;;;;;6.82;0.93;;;;;;;;;;5054795;28;20786;-71
2023/10/16 11:21:27;;;;;;;4.32;0.90;;;;;;;;;;5050294;28;20182;-70
2023/10/16 11:24:00;;;;;;;5.47;0.93;;;;;;;;;;5052416;28;20268;-71
2023/10/16 11:26:28;;;;;;;5.95;1.05;;;;;;;;;;5054791;28;20625;-71
2023/10/16 11:28:54;;;;;;;5.40;1.15;;;;;;;;;;5054289;28;20197;-71
2023/10/16 11:31:21;;;;;;;8.25;1.73;;;;;;;;;;5049081;28;20233;-71
2023/10/16 11:34:00;;;;;;;9.13;1.30;;;;;;;;;;5046912;28;20200;-71
2023/10/16 11:36:27;;;;;;;4.18;0.80;;;;;;;;;;5052632;28;20189;-71
2023/10/16 11:38:58;;;;;;;8.30;1.23;;;;;;;;;;5047825;28;20198;-71
2023/10/16 11:41:24;;;;;;;3.53;0.80;;;;;;;;;;5048466;28;20287;-71
2023/10/16 11:43:54;;;;;;;4.30;0.90;;;;;;;;;;5052475;28;20213;-71
2023/10/16 11:46:31;;;;;;;5.53;1.05;;;;;;;;;;5045183;28;20676;-70
2023/10/16 11:49:22;;;;;;;7.45;1.05;;;;;;;;;;5037662;28;20204;-71
2023/10/16 11:51:51;;;;;;;3.90;0.90;;;;;;;;;;5048116;28;20209;-71
2023/10/16 11:54:19;;;;;;;4.70;0.85;;;;;;;;;;5041024;28;20185;-71
2023/10/16 11:56:50;;;;;;;5.65;1.00;;;;;;;;;;5051294;28;20230;-71
2023/10/16 11:59:19;;;;;;;5.00;1.05;;;;;;;;;;5060268;28;20478;-71
2023/10/16 12:01:44;;;;;;;3.45;0.80;;;;;;;;;;5049119;28;20174;-71
2023/10/16 12:04:11;;;;;;;9.73;1.45;;;;;;;;;;5051571;28;20604;-71
2023/10/16 12:06:38;;;;;;;5.03;0.98;;;;;;;;;;5062999;28;20194;-71
2023/10/16 12:09:04;;;;;;;7.95;1.10;;;;;;;;;;5043864;28;20260;-71
2023/10/16 12:11:30;;;;;;;5.40;0.90;;;;;;;;;;5060999;28;20363;-71
2023/10/16 12:13:55;;;;;;;7.05;0.85;;;;;;;;;;5056928;28;20639;-71
2023/10/16 12:16:24;;;;;;;6.50;1.67;;;;;;;;;;5033992;28;20199;-71
2023/10/16 12:18:51;;;;;;;7.30;0.80;;;;;;;;;;5048580;28;20189;-71
2023/10/16 12:21:17;;;;;;;3.17;1.00;;;;;;;;;;5046623;28;20182;-71
2023/10/16 12:23:43;;;;;;;3.28;0.82;;;;;;;;;;5043093;28;20256;-71
2023/10/16 12:26:09;;;;;;;7.43;1.20;;;;;;;;;;5056081;28;20205;-71
2023/10/16 12:28:34;;;;;;;7.85;0.90;;;;;;;;;;5058487;28;20240;-71
2023/10/16 12:31:02;;;;;;;9.70;1.02;;;;;;;;;;5047060;28;20283;-71
2023/10/16 12:33:30;;;;;;;5.93;0.80;;;;;;;;;;5048708;28;20290;-71
2023/10/16 12:35:56;;;;;;;7.22;1.00;;;;;;;;;;5049670;28;20691;-71
2023/10/16 12:38:23;;;;;;;4.97;1.05;;;;;;;;;;5067190;28;20189;-71
2023/10/16 12:40:53;;;;;;;7.45;0.90;;;;;;;;;;5048308;28;20193;-72
2023/10/16 12:43:20;;;;;;;4.13;0.88;;;;;;;;;;4345269;28;10000846;-72
2023/10/16 12:45:45;;;;;;;5.78;1.00;;;;;;;;;;5045730;28;20201;-72
2023/10/16 12:48:11;;;;;;;5.70;1.17;;;;;;;;;;5043807;28;20532;-72
2023/10/16 12:50:37;;;;;;;8.63;0.90;;;;;;;;;;5049733;28;20211;-72
2023/10/16 12:53:03;;;;;;;2.47;0.80;;;;;;;;;;5047905;28;20212;-72
2023/10/16 12:55:28;;;;;;;6.95;1.00;;;;;;;;;;5042003;28;20198;-72
2023/10/16 12:57:54;;;;;;;3.30;1.25;;;;;;;;;;5036994;28;20574;-72
2023/10/16 13:00:21;;;;;;;5.82;1.02;;;;;;;;;;5038531;28;20290;-71
2023/10/16 13:02:51;;;;;;;5.10;1.00;;;;;;;;;;5044921;28;20188;-71
2023/10/16 13:05:19;;;;;;;6.05;0.85;;;;;;;;;;5045781;28;20685;-71
2023/10/16 13:07:47;;;;;;;4.10;0.73;;;;;;;;;;5026638;28;20277;-71
2023/10/16 13:10:19;;;;;;;2.97;0.95;;;;;;;;;;5049422;28;21023;-72
2023/10/16 13:12:45;;;;;;;4.32;0.90;;;;;;;;;;5042967;28;20305;-72
2023/10/16 13:15:16;;;;;;;7.07;0.98;;;;;;;;;;5043648;28;20715;-72
2023/10/16 13:17:44;;;;;;;4.95;1.27;;;;;;;;;;5043894;28;20768;-72
2023/10/16 13:20:17;;;;;;;6.13;0.85;;;;;;;;;;5045110;28;20658;-72
2023/10/16 13:22:52;;;;;;;3.80;1.00;;;;;;;;;;5032744;28;20177;-72
2023/10/16 13:25:22;;;;;;;6.20;0.95;;;;;;;;;;5051068;28;20259;-72
2023/10/16 13:27:48;;;;;;;4.82;1.02;;;;;;;;;;5047965;28;20475;-72
2023/10/16 13:30:16;;;;;;;3.92;0.90;;;;;;;;;;5052609;28;20200;-72
2023/10/16 13:32:46;;;;;;;4.25;1.00;;;;;;;;;;5042158;28;20263;-72
2023/10/16 13:35:12;;;;;;;6.22;0.95;;;;;;;;;;5036312;28;20661;-72
2023/10/16 13:37:50;;;;;;;4.63;1.10;;;;;;;;;;5042323;28;20273;-71
2023/10/16 13:40:21;;;;;;;4.97;1.02;;;;;;;;;;5045321;28;20418;-70
2023/10/16 13:42:50;;;;;;;4.55;0.85;;;;;;;;;;5043021;28;20181;-71
2023/10/16 13:45:17;;;;;;;2.80;0.85;;;;;;;;;;5043594;28;20241;-71
2023/10/16 13:47:43;;;;;;;5.82;1.40;;;;;;;;;;5044092;28;20616;-71
2023/10/16 13:50:13;;;;;;;7.03;1.50;;;;;;;;;;5043428;28;20211;-70
2023/10/16 13:52:43;;;;;;;4.80;1.05;;;;;;;;;;5046003;28;20217;-71
2023/10/16 13:55:13;;;;;;;9.00;0.90;;;;;;;;;;5045555;28;20296;-70
2023/10/16 13:57:42;;;;;;;8.23;1.13;;;;;;;;;;5039068;28;20189;-70
2023/10/16 14:00:11;;;;;;;4.10;1.05;;;;;;;;;;5038498;28;20524;-70
2023/10/16 14:02:36;;;;;;;6.38;1.00;;;;;;;;;;5044931;28;20193;-70
2023/10/16 14:05:06;;;;;;;4.40;0.85;;;;;;;;;;5056881;28;20201;-71
2023/10/16 14:07:33;;;;;;;5.32;1.20;;;;;;;;;;5044599;28;20224;-70
2023/10/16 14:09:59;;;;;;;3.45;1.02;;;;;;;;;;5045959;28;20193;-71
2023/10/16 14:12:25;;;;;;;2.92;1.13;;;;;;;;;;5045667;28;20197;-70
2023/10/16 14:14:51;;;;;;;4.85;0.90;;;;;;;;;;5039267;28;20197;-70
2023/10/16 14:17:18;;;;;;;4.55;1.10;;;;;;;;;;5047046;28;20234;-70
2023/10/16 14:19:50;;;;;;;4.82;1.23;;;;;;;;;;5027168;28;20202;-70
2023/10/16 14:22:16;;;;;;;7.35;1.00;;;;;;;;;;5042383;28;20190;-71
2023/10/16 14:24:45;;;;;;;3.35;0.82;;;;;;;;;;5041821;28;20219;-70
2023/10/16 14:27:13;;;;;;;9.45;1.00;;;;;;;;;;5046134;28;20193;-71
2023/10/16 14:29:44;;;;;;;2.63;0.77;;;;;;;;;;5039669;28;20211;-71
2023/10/16 14:32:10;;;;;;;4.20;0.98;;;;;;;;;;5043550;28;20645;-71
2023/10/16 14:34:37;;;;;;;5.18;1.45;;;;;;;;;;5041412;28;20232;-71
2023/10/16 14:37:05;;;;;;;8.20;0.90;;;;;;;;;;5045253;28;20229;-71
2023/10/16 14:39:31;;;;;;;12.23;1.00;;;;;;;;;;5045199;28;20189;-71
2023/10/16 14:42:01;;;;;;;6.10;1.08;;;;;;;;;;5046533;28;20656;-71
2023/10/16 14:44:27;;;;;;;1.85;0.73;;;;;;;;;;5031916;28;20306;-71
2023/10/16 14:46:56;;;;;;;5.90;1.52;;;;;;;;;;5042887;28;20193;-71
2023/10/16 14:49:25;;;;;;;5.15;1.00;;;;;;;;;;5042040;28;20197;-70
2023/10/16 14:51:51;;;;;;;6.95;0.95;;;;;;;;;;5039760;28;20637;-71
2023/10/16 14:54:16;;;;;;;3.30;1.50;;;;;;;;;;5041106;28;20193;-71
2023/10/16 14:56:44;;;;;;;2.97;0.90;;;;;;;;;;5047686;28;20228;-71
2023/10/16 14:59:14;;;;;;;4.20;1.10;;;;;;;;;;5045315;28;20273;-71
2023/10/16 15:01:39;;;;;;;2.80;1.05;;;;;;;;;;5046374;28;20181;-71
2023/10/16 15:04:08;;;;;;;3.30;0.70;;;;;;;;;;5036384;28;20185;-71
2023/10/16 15:06:34;;;;;;;4.88;0.90;;;;;;;;;;5047855;28;20269;-71
2023/10/16 15:08:59;;;;;;;5.15;0.65;;;;;;;;;;5047149;28;20531;-71
2023/10/16 15:11:26;;;;;;;5.18;1.00;;;;;;;;;;5046836;28;20224;-71
2023/10/16 15:13:53;;;;;;;4.35;1.05;;;;;;;;;;5047513;28;20189;-71
2023/10/16 15:16:19;;;;;;;2.65;0.88;;;;;;;;;;5057827;28;20180;-71
2023/10/16 15:18:44;;;;;;;6.53;0.93;;;;;;;;;;5048137;28;20190;-71
2023/10/16 15:21:10;;;;;;;5.40;0.70;;;;;;;;;;5045019;28;20177;-71
2023/10/16 15:23:36;;;;;;;5.40;0.90;;;;;;;;;;5053956;28;20229;-71
2023/10/16 15:26:02;;;;;;;4.78;0.82;;;;;;;;;;5047095;28;20267;-72
2023/10/16 15:28:29;;;;;;;5.40;0.98;;;;;;;;;;5049835;28;20190;-71
2023/10/16 15:30:54;;;;;;;2.55;1.10;;;;;;;;;;5033664;28;20567;-71
2023/10/16 15:33:20;;;;;;;4.20;1.83;;;;;;;;;;5049459;28;20221;-71
2023/10/16 15:35:50;;;;;;;10.07;2.50;;;;;;;;;;5053082;28;20193;-71
2023/10/16 15:38:16;;;;;;;6.57;3.05;;;;;;;;;;5054634;28;20190;-71
2023/10/16 15:40:45;;;;;;;8.05;2.00;;;;;;;;;;5049737;28;20197;-71
2023/10/16 15:43:11;;;;;;;4.20;1.20;;;;;;;;;;5050889;28;20185;-71
2023/10/16 15:45:38;;;;;;;5.43;1.10;;;;;;;;;;5047504;28;20690;-71
2023/10/16 15:48:07;;;;;;;3.20;0.80;;;;;;;;;;5051082;28;20575;-71
2023/10/16 15:50:35;;;;;;;2.70;1.02;;;;;;;;;;5055870;28;20218;-72
2023/10/16 15:53:03;;;;;;;2.08;0.80;;;;;;;;;;5067954;28;20732;-71
2023/10/16 15:55:29;;;;;;;6.22;1.00;;;;;;;;;;5050498;28;20213;-71
2023/10/16 15:57:56;;;;;;;5.28;0.90;;;;;;;;;;5055102;28;20281;-71
2023/10/16 16:00:30;;;;;;;3.60;1.10;;;;;;;;;;5046718;28;20189;-71
2023/10/16 16:02:59;;;;;;;4.43;1.10;;;;;;;;;;5063822;28;20210;-71
2023/10/16 16:05:27;;;;;;;8.00;1.50;;;;;;;;;;5051191;28;20196;-71
2023/10/16 16:07:53;;;;;;;3.97;1.17;;;;;;;;;;5053765;28;20197;-71
2023/10/16 16:10:19;;;;;;;6.68;1.15;;;;;;;;;;5050055;28;20231;-71
2023/10/16 16:12:46;;;;;;;7.53;1.20;;;;;;;;;;5044842;28;20225;-71
2023/10/16 16:15:16;;;;;;;6.35;1.55;;;;;;;;;;5053518;28;20190;-71
2023/10/16 16:17:45;;;;;;;2.85;1.08;;;;;;;;;;5045523;28;20678;-71
2023/10/16 16:20:15;;;;;;;4.75;1.27;;;;;;;;;;5046797;28;20541;-71
2023/10/16 16:22:43;;;;;;;3.22;0.85;;;;;;;;;;5061672;28;20189;-70
2023/10/16 16:25:12;;;;;;;4.25;1.30;;;;;;;;;;5042608;28;20209;-70
2023/10/16 16:27:38;;;;;;;4.25;0.93;;;;;;;;;;5046200;28;20247;-70
2023/10/16 16:30:05;;;;;;;4.75;1.13;;;;;;;;;;5046966;28;20196;-70
2023/10/16 16:32:30;;;;;;;4.65;1.15;;;;;;;;;;5045527;28;20312;-71
2023/10/16 16:34:55;;;;;;;7.47;1.17;;;;;;;;;;5047781;28;20276;-71
2023/10/16 16:37:21;;;;;;;3.88;0.95;;;;;;;;;;5046854;28;20690;-71
2023/10/16 16:39:46;;;;;;;4.68;0.90;;;;;;;;;;5047899;28;20197;-71
2023/10/16 16:42:13;;;;;;;4.93;1.00;;;;;;;;;;5046555;28;20400;-71
2023/10/16 16:44:41;;;;;;;4.13;1.02;;;;;;;;;;5048992;28;20221;-71
2023/10/16 16:47:06;;;;;;;4.72;1.00;;;;;;;;;;5046448;28;20262;-71